createdAt,value
2017-12-03T00:01:21.644Z,30.40
2017-12-03T00:06:23.183Z,30.93
2017-12-03T00:11:25.453Z,29.83
2017-12-03T00:16:26.981Z,26.53
2017-12-03T00:21:28.525Z,29.20
2017-12-03T00:26:30.081Z,27.67
2017-12-03T00:31:31.615Z,27.97
2017-12-03T00:36:33.106Z,28.90
2017-12-03T00:41:35.375Z,26.50
2017-12-03T00:46:36.892Z,28.67
2017-12-03T00:51:38.447Z,28.07
2017-12-03T00:56:39.953Z,28.13
2017-12-03T01:01:41.489Z,29.73
2017-12-03T01:06:43.054Z,26.57
2017-12-03T01:11:44.590Z,28.60
2017-12-03T01:16:46.868Z,28.67
2017-12-03T01:21:48.386Z,29.57
2017-12-03T01:26:49.869Z,28.63
2017-12-03T01:31:51.437Z,28.73
2017-12-03T01:36:53.013Z,30.67
2017-12-03T01:41:54.525Z,29.67
2017-12-03T01:46:56.923Z,26.97
2017-12-03T01:51:58.601Z,29.20
2017-12-03T01:57:00.098Z,29.33
2017-12-03T02:02:01.646Z,29.07
2017-12-03T02:07:03.164Z,28.80
2017-12-03T02:12:05.421Z,29.67
2017-12-03T02:17:06.924Z,27.97
2017-12-03T02:22:09.313Z,26.60
2017-12-03T02:27:11.565Z,27.63
2017-12-03T02:32:13.457Z,29.67
2017-12-03T02:37:14.968Z,28.40
2017-12-03T02:42:16.467Z,26.43
2017-12-03T02:47:18.003Z,27.50
2017-12-03T02:52:19.575Z,24.57
2017-12-03T02:57:21.112Z,27.33
2017-12-03T03:02:23.408Z,25.77
2017-12-03T03:07:25.134Z,26.57
2017-12-03T03:12:26.641Z,26.83
2017-12-03T03:17:28.908Z,25.50
2017-12-03T03:22:30.598Z,25.63
2017-12-03T03:27:32.882Z,26.97
2017-12-03T03:32:35.130Z,27.17
2017-12-03T03:37:36.682Z,25.27
2017-12-03T03:42:38.204Z,26.23
2017-12-03T03:47:39.773Z,24.53
2017-12-03T03:52:41.303Z,26.47
2017-12-03T03:57:42.826Z,25.17
2017-12-03T04:02:44.335Z,25.97
2017-12-03T04:07:45.846Z,25.20
2017-12-03T04:12:47.369Z,24.07
2017-12-03T04:17:48.872Z,25.83
2017-12-03T04:22:50.395Z,24.63
2017-12-03T04:27:51.979Z,25.87
2017-12-03T04:32:53.549Z,27.33
2017-12-03T04:37:55.040Z,24.37
2017-12-03T04:42:57.321Z,25.27
2017-12-03T04:47:59.581Z,24.37
2017-12-03T04:53:01.132Z,25.30
2017-12-03T04:58:02.674Z,24.20
2017-12-03T05:03:04.209Z,26.90
2017-12-03T05:08:06.497Z,24.30
2017-12-03T05:13:07.974Z,24.77
2017-12-03T05:18:09.494Z,23.27
2017-12-03T05:23:11.209Z,22.67
2017-12-03T05:28:12.705Z,20.87
2017-12-03T05:33:14.276Z,22.57
2017-12-03T05:38:15.784Z,20.60
2017-12-03T05:43:18.057Z,19.80
2017-12-03T05:48:19.566Z,19.67
2017-12-03T05:53:21.065Z,18.20
2017-12-03T05:58:22.580Z,18.57
2017-12-03T06:03:24.856Z,18.80
2017-12-03T06:08:27.111Z,19.40
2017-12-03T06:13:28.629Z,15.67
2017-12-03T06:18:30.110Z,16.17
2017-12-03T06:23:31.633Z,18.57
2017-12-03T06:28:33.166Z,15.77
2017-12-03T06:33:34.699Z,14.93
2017-12-03T06:38:36.233Z,12.53
2017-12-03T06:43:37.733Z,13.97
2017-12-03T06:48:39.409Z,16.60
2017-12-03T06:53:41.150Z,16.20
2017-12-03T06:58:43.437Z,15.60
2017-12-03T07:03:45.700Z,17.63
2017-12-03T07:08:47.246Z,20.07
2017-12-03T07:13:48.819Z,23.10
2017-12-03T07:18:50.384Z,23.87
2017-12-03T07:23:51.887Z,27.03
2017-12-03T07:28:53.416Z,27.90
2017-12-03T07:33:54.952Z,28.30
2017-12-03T07:38:56.502Z,30.70
2017-12-03T07:43:58.780Z,35.40
2017-12-03T07:49:01.041Z,31.60
2017-12-03T07:54:02.555Z,33.67
2017-12-03T07:59:04.093Z,32.93
2017-12-03T08:04:05.734Z,31.20
2017-12-03T08:09:07.295Z,34.43
2017-12-03T08:14:08.844Z,31.77
2017-12-03T08:19:10.504Z,32.40
2017-12-03T08:24:12.041Z,33.23
2017-12-03T08:29:14.324Z,87.57
2017-12-03T08:34:16.611Z,39.13
2017-12-03T08:39:18.925Z,36.13
2017-12-03T08:44:20.462Z,34.50
2017-12-03T08:49:22.704Z,32.07
2017-12-03T08:54:24.309Z,37.37
2017-12-03T08:59:25.857Z,29.47
2017-12-03T09:04:27.338Z,27.07
2017-12-03T09:09:35.793Z,26.57
2017-12-03T09:14:37.331Z,26.07
2017-12-03T09:19:38.855Z,28.63
2017-12-03T09:24:40.457Z,25.80
2017-12-03T09:29:41.998Z,24.47
2017-12-03T09:34:43.569Z,27.80
2017-12-03T09:39:45.064Z,26.10
2017-12-03T09:44:46.750Z,25.40
2017-12-03T09:49:48.265Z,25.50
2017-12-03T09:54:49.773Z,24.33
2017-12-03T09:59:51.264Z,27.07
2017-12-03T10:04:53.534Z,26.77
2017-12-03T10:09:55.102Z,27.77
2017-12-03T10:15:04.822Z,24.77
2017-12-03T10:20:06.366Z,26.07
2017-12-03T10:25:07.900Z,29.10
2017-12-03T10:30:10.214Z,26.43
2017-12-03T10:35:11.771Z,28.30
2017-12-03T10:40:13.301Z,26.93
2017-12-03T10:45:14.901Z,23.93
2017-12-03T10:50:16.432Z,28.53
2017-12-03T10:55:17.999Z,28.63
2017-12-03T11:00:19.552Z,27.00
2017-12-03T11:05:21.065Z,25.40
2017-12-03T11:10:23.417Z,23.77
2017-12-03T11:15:24.924Z,26.83
2017-12-03T11:20:27.279Z,25.30
2017-12-03T11:25:28.792Z,24.80
2017-12-03T11:30:30.326Z,23.07
2017-12-03T11:35:32.700Z,25.07
2017-12-03T11:40:34.270Z,27.20
2017-12-03T11:45:35.818Z,26.00
2017-12-03T11:50:37.421Z,24.40
2017-12-03T11:55:39.738Z,28.00
2017-12-03T12:00:41.365Z,25.17
2017-12-03T12:05:42.886Z,25.40
2017-12-03T12:10:44.448Z,27.03
2017-12-03T12:15:46.009Z,26.50
2017-12-03T12:20:47.548Z,27.23
2017-12-03T12:25:49.802Z,29.00
2017-12-03T12:30:51.342Z,29.13
2017-12-03T12:35:52.891Z,26.43
2017-12-03T12:40:54.429Z,27.77
2017-12-03T12:45:56.884Z,24.43
2017-12-03T12:50:58.421Z,25.73
2017-12-03T12:56:00.012Z,26.53
2017-12-03T13:01:01.547Z,25.73
2017-12-03T13:06:03.079Z,25.03
2017-12-03T13:11:04.898Z,24.60
2017-12-03T13:16:06.495Z,26.33
2017-12-03T13:21:08.105Z,27.43
2017-12-03T13:26:10.454Z,25.33
2017-12-03T13:31:12.032Z,23.07
2017-12-03T13:36:13.763Z,26.97
2017-12-03T13:41:15.286Z,27.43
2017-12-03T13:46:16.801Z,26.53
2017-12-03T13:51:18.354Z,30.17
2017-12-03T13:56:20.072Z,26.00
2017-12-03T14:01:21.627Z,24.80
2017-12-03T14:06:23.195Z,27.97
2017-12-03T14:11:24.884Z,26.20
2017-12-03T14:16:26.391Z,30.70
2017-12-03T14:21:28.694Z,28.57
2017-12-03T14:26:30.206Z,27.60
2017-12-03T14:31:31.872Z,29.17
2017-12-03T14:36:33.466Z,30.40
2017-12-03T14:41:36.179Z,26.00
2017-12-03T14:46:38.497Z,26.07
2017-12-03T14:51:40.065Z,28.37
2017-12-03T14:56:41.631Z,31.63
2017-12-03T15:01:43.172Z,30.90
2017-12-03T15:06:44.724Z,29.43
2017-12-03T15:11:47.068Z,28.23
2017-12-03T15:16:48.618Z,28.80
2017-12-03T15:21:50.129Z,27.13
2017-12-03T15:26:51.705Z,29.27
2017-12-03T15:31:53.292Z,26.23
2017-12-03T15:36:54.813Z,28.23
2017-12-03T15:41:56.368Z,26.10
2017-12-03T15:46:57.894Z,26.83
2017-12-03T15:52:00.264Z,28.10
2017-12-03T15:57:03.569Z,31.00
2017-12-03T16:02:05.159Z,30.00
2017-12-03T16:07:06.856Z,29.57
2017-12-03T16:12:08.491Z,29.17
2017-12-03T16:17:10.162Z,26.33
2017-12-03T16:22:11.744Z,27.30
2017-12-03T16:27:13.263Z,31.47
2017-12-03T16:32:14.764Z,31.70
2017-12-03T16:37:17.044Z,30.40
2017-12-03T16:42:19.330Z,32.40
2017-12-03T16:47:21.638Z,30.30
2017-12-03T16:52:23.240Z,34.10
2017-12-03T16:57:24.803Z,29.50
2017-12-03T17:02:26.432Z,31.20
2017-12-03T17:07:28.012Z,31.97
2017-12-03T17:12:29.622Z,32.27
2017-12-03T17:17:31.465Z,29.27
2017-12-03T17:22:33.073Z,38.93
2017-12-03T17:27:34.720Z,30.93
2017-12-03T17:32:36.249Z,28.23
2017-12-03T17:37:38.522Z,31.80
2017-12-03T17:42:40.848Z,32.53
2017-12-03T17:47:42.543Z,31.27
2017-12-03T17:52:44.118Z,33.50
2017-12-03T17:57:45.768Z,31.30
2017-12-03T18:02:47.339Z,31.30
2017-12-03T18:07:48.956Z,31.90
2017-12-03T18:12:50.655Z,30.53
2017-12-03T18:17:52.204Z,28.23
2017-12-03T18:22:54.627Z,28.00
2017-12-03T18:27:56.217Z,33.03
2017-12-03T18:32:57.814Z,31.13
2017-12-03T18:37:59.413Z,33.37
2017-12-03T18:43:02.060Z,30.43
2017-12-03T18:48:04.347Z,35.23
2017-12-03T18:53:06.443Z,34.13
2017-12-03T18:58:08.712Z,35.50
2017-12-03T19:03:10.229Z,30.20
2017-12-03T19:08:11.796Z,37.37
2017-12-03T19:13:13.359Z,41.77
2017-12-03T19:18:15.044Z,30.90
2017-12-03T19:23:16.666Z,35.90
2017-12-03T19:28:18.236Z,35.07
2017-12-03T19:33:19.794Z,31.70
2017-12-03T19:38:21.369Z,40.00
2017-12-03T19:43:22.917Z,35.23
2017-12-03T19:48:24.493Z,35.87
2017-12-03T19:53:26.178Z,42.77
2017-12-03T19:58:28.458Z,32.87
2017-12-03T20:03:30.742Z,39.47
2017-12-03T20:08:32.304Z,36.27
2017-12-03T20:13:34.118Z,34.47
2017-12-03T20:18:35.762Z,37.00
2017-12-03T20:23:38.283Z,38.93
2017-12-03T20:28:39.838Z,39.67
2017-12-03T20:33:42.133Z,33.63
2017-12-03T20:38:44.207Z,35.80
2017-12-03T20:43:45.716Z,35.63
2017-12-03T20:48:47.484Z,33.77
2017-12-03T20:53:49.113Z,34.03
2017-12-03T20:58:50.779Z,32.30
2017-12-03T21:03:53.062Z,33.77
2017-12-03T21:08:55.442Z,31.30
2017-12-03T21:13:58.035Z,34.47
2017-12-03T21:19:00.357Z,32.37
2017-12-03T21:24:01.926Z,33.60
2017-12-03T21:29:03.555Z,48.60
2017-12-03T21:34:05.092Z,34.50
2017-12-03T21:39:06.688Z,30.97
2017-12-03T21:44:08.176Z,35.27
2017-12-03T21:49:10.594Z,34.93
2017-12-03T21:54:12.142Z,29.90
2017-12-03T21:59:13.681Z,30.37
2017-12-03T22:04:15.259Z,31.30
2017-12-03T22:09:17.581Z,29.73
2017-12-03T22:14:19.176Z,29.17
2017-12-03T22:19:20.725Z,28.80
2017-12-03T22:24:22.296Z,29.37
2017-12-03T22:29:23.855Z,27.97
2017-12-03T22:34:25.407Z,28.03
2017-12-03T22:39:27.006Z,25.57
2017-12-03T22:44:28.542Z,23.73
2017-12-03T22:49:30.075Z,25.97
2017-12-03T22:54:31.968Z,26.50
2017-12-03T22:59:33.568Z,25.97
2017-12-03T23:04:35.142Z,28.23
2017-12-03T23:09:37.433Z,25.63
2017-12-03T23:14:38.954Z,26.57
2017-12-03T23:19:41.188Z,25.47
2017-12-03T23:24:42.727Z,23.70
2017-12-03T23:29:44.332Z,22.63
2017-12-03T23:34:45.834Z,18.93
2017-12-03T23:39:48.200Z,19.00
2017-12-03T23:44:49.711Z,20.10
2017-12-03T23:49:51.269Z,20.87
2017-12-03T23:54:53.495Z,19.27
2017-12-03T23:59:55.021Z,19.23
